Senyomaru — JI3557 — position and weather

sailwx.info

Track history (hours):
 
Tides and Currents Weather Stations Pressure Air Temp Water Temp Dewpoint Dewpoint Depression Visibility Wind Speed Wind Dir Waves Ship Positions

Senyomaru

Last reported at 2018-Apr-27 03:07 UTC. Time now 2018-Apr-27 05:02 UTC.
Position N 34°13' E 132°15'.

Length 69 m; draft 4 m.

Type: Tanker. MMSI: 431300188.

Date/timePositionNaut miles runAvg speedWind from/ knotsBaromVisibWave heightAir tempDewpointWater temp
2018-Apr-27 03:07N 34°13' E 132°15'0 0.0
2018-Apr-27 02:55N 34°13' E 132°15'0 0.0
2018-Apr-27 02:30N 34°13' E 132°15'1 2.0
2018-Apr-27 02:00N 34°14' E 132°14'0 0.1
2018-Apr-27 01:30N 34°14' E 132°14'0 0.0
2018-Apr-27 01:00N 34°14' E 132°14'0 0.0
2018-Apr-27 00:30N 34°14' E 132°14'0 0.0
2018-Apr-27 00:00N 34°14' E 132°14'0 0.0
2018-Apr-26 23:29N 34°14' E 132°14'0 0.1
2018-Apr-26 23:00N 34°14' E 132°14'1 0.9
2018-Apr-26 22:22N 34°14' E 132°14'0 0.0
2018-Apr-26 21:07N 34°14' E 132°14'0 0.0
2018-Apr-26 20:58N 34°14' E 132°14'0 0.0
2018-Apr-26 20:16N 34°14' E 132°14'0 0.1
2018-Apr-26 20:00N 34°14' E 132°14'510.8
2018-Apr-26 19:30N 34°10' E 132°18'712.7
2018-Apr-26 18:59N 34°06' E 132°25'612.3
2018-Apr-26 18:30N 34°03' E 132°30'4 8.3
2018-Apr-26 18:00N 34°03' E 132°35'4611.6
2018-Apr-26 14:01N 34°16' E 133°29'3011.1
2018-Apr-26 11:18N 34°27' E 134°03'611.9
2018-Apr-26 10:46N 34°26' E 134°11'611.7
2018-Apr-26 10:15N 34°24' E 134°18'312.0
2018-Apr-26 10:00N 34°25' E 134°22'612.3
2018-Apr-26 09:30N 34°27' E 134°29'612.4
2018-Apr-26 09:00N 34°29' E 134°36'612.5
2018-Apr-26 08:30N 34°32' E 134°42'612.7
2018-Apr-26 08:00N 34°34' E 134°49'713.4
2018-Apr-26 07:30N 34°37' E 134°57'611.5
2018-Apr-26 07:00N 34°36' E 135°04'611.9
2018-Apr-26 06:30N 34°35' E 135°11'611.5
2018-Apr-26 06:00N 34°34' E 135°18'611.1
2018-Apr-26 05:30N 34°33' E 135°25'1 1.9
2018-Apr-26 04:58N 34°33' E 135°26'0 0.0
2018-Apr-26 04:28N 34°33' E 135°26'0 0.0
2018-Apr-26 03:58N 34°33' E 135°26'0 0.0
2018-Apr-26 03:28N 34°33' E 135°26'0 0.0
2018-Apr-26 02:58N 34°33' E 135°26'0 0.0
2018-Apr-26 02:28N 34°33' E 135°26'0 0.0
2018-Apr-26 01:58N 34°33' E 135°26'0 0.0
2018-Apr-26 01:28N 34°33' E 135°26'0 0.0
2018-Apr-26 00:58N 34°33' E 135°26'0 0.0
2018-Apr-26 00:28N 34°33' E 135°26'0 0.0
2018-Apr-25 23:58N 34°33' E 135°26'1 2.2
2018-Apr-25 23:30N 34°33' E 135°24'1 2.4
2018-Apr-25 22:58N 34°34' E 135°23'0 0.0
2018-Apr-25 22:28N 34°34' E 135°23'0 0.0
2018-Apr-25 21:58N 34°34' E 135°23'0 0.0
2018-Apr-25 21:28N 34°34' E 135°23'0 0.0
2018-Apr-25 20:58N 34°34' E 135°23'0 0.0
2018-Apr-25 20:28N 34°34' E 135°23'0 0.0
2018-Apr-25 19:58N 34°34' E 135°23'0 0.0
2018-Apr-25 19:28N 34°34' E 135°23'0 0.0
2018-Apr-25 18:58N 34°34' E 135°23'0 0.0
2018-Apr-25 18:28N 34°34' E 135°23'0 0.0
2018-Apr-25 17:55N 34°34' E 135°23'0 0.0
2018-Apr-25 17:28N 34°34' E 135°23'0 0.0
2018-Apr-25 16:58N 34°34' E 135°23'0 0.0
2018-Apr-25 16:28N 34°34' E 135°23'0 0.0
2018-Apr-25 15:55N 34°34' E 135°23'1 1.3
2018-Apr-25 15:31N 34°34' E 135°22'611.6
2018-Apr-25 15:01N 34°34' E 135°15'611.8
2018-Apr-25 14:30N 34°34' E 135°08'713.8
2018-Apr-25 14:00N 34°37' E 135°01'714.2
2018-Apr-25 13:31N 34°35' E 134°53'713.2
2018-Apr-25 13:00N 34°32' E 134°45'612.6
2018-Apr-25 12:30N 34°30' E 134°38'612.3
2018-Apr-25 12:00N 34°27' E 134°31'9311.3
2018-Apr-25 03:44N 34°06' E 132°41'312.0
2018-Apr-25 03:30N 34°04' E 132°38'711.5
2018-Apr-25 02:55N 34°02' E 132°31'612.4
2018-Apr-25 02:26N 34°06' E 132°25'512.4
2018-Apr-25 01:59N 34°09' E 132°20'612.2
2018-Apr-25 01:30N 34°13' E 132°15'1 2.2
2018-Apr-25 01:00N 34°14' E 132°14'0 0.0
2018-Apr-25 00:28N 34°14' E 132°14'0 0.0
2018-Apr-24 23:58N 34°14' E 132°14'0 0.0
2018-Apr-24 23:25N 34°14' E 132°14'0 0.0
2018-Apr-24 22:49N 34°14' E 132°14'0 0.0
2018-Apr-24 22:19N 34°14' E 132°14'0 0.0
2018-Apr-24 21:58N 34°14' E 132°14'1 1.2
2018-Apr-24 21:27N 34°14' E 132°14'0 0.0
2018-Apr-24 21:00N 34°14' E 132°14'0 0.0
2018-Apr-24 20:30N 34°14' E 132°14'0 0.1
2018-Apr-24 20:00N 34°14' E 132°14'0 0.0
2018-Apr-24 19:30N 34°14' E 132°14'0 0.0
2018-Apr-24 18:57N 34°14' E 132°14'0 0.0
2018-Apr-24 18:30N 34°14' E 132°14'0 0.0
2018-Apr-24 17:57N 34°14' E 132°14'0 0.0
2018-Apr-24 17:30N 34°14' E 132°14'0 0.0
2018-Apr-24 17:00N 34°14' E 132°14'0 0.0
2018-Apr-24 16:30N 34°14' E 132°14'0 0.0
2018-Apr-24 15:57N 34°14' E 132°14'0 0.0
2018-Apr-24 15:30N 34°14' E 132°14'1 2.5
2018-Apr-24 15:00N 34°13' E 132°15'611.6
2018-Apr-24 14:30N 34°08' E 132°18'611.5
2018-Apr-24 13:59N 34°03' E 132°15'1910.0
2018-Apr-24 12:04N 33°46' E 132°03'111.2
2018-Apr-24 12:00N 33°46' E 132°02'712.6
2018-Apr-24 11:27N 33°46' E 131°54'613.2
2018-Apr-24 11:00N 33°47' E 131°47'712.9
2018-Apr-24 10:30N 33°48' E 131°40'612.9
2018-Apr-24 10:00N 33°50' E 131°32'612.8
2018-Apr-24 09:30N 33°51' E 131°25'612.4
2018-Apr-24 09:00N 33°52' E 131°17'612.0
2018-Apr-24 08:30N 33°54' E 131°10'611.9
2018-Apr-24 08:00N 33°57' E 131°04'510.5
2018-Apr-24 07:30N 33°58' E 130°58'4 8.8
2018-Apr-24 07:00N 33°54' E 130°55'4 8.6
2018-Apr-24 06:30N 33°56' E 130°50'4 8.8
2018-Apr-24 06:00N 33°53' E 130°46'1 1.8
2018-Apr-24 05:30N 33°52' E 130°45'0 0.0
2018-Apr-24 05:00N 33°52' E 130°45'0 0.0
2018-Apr-24 04:30N 33°52' E 130°45'0 0.0
2018-Apr-24 04:00N 33°52' E 130°45'0 0.0
2018-Apr-24 03:30N 33°52' E 130°45'0 0.0
2018-Apr-24 03:00N 33°52' E 130°45'0 0.0
2018-Apr-24 02:27N 33°52' E 130°45'0 0.0
2018-Apr-24 02:00N 33°52' E 130°45'0 0.0
2018-Apr-24 01:30N 33°52' E 130°45'0 0.0
2018-Apr-24 01:00N 33°52' E 130°45'0 0.0
2018-Apr-24 00:30N 33°52' E 130°45'0 0.2
2018-Apr-24 00:00N 33°53' E 130°45'2 4.9
2018-Apr-23 23:31N 33°53' E 130°48'4 8.9
2018-Apr-23 23:00N 33°57' E 130°52'2 4.7
2018-Apr-23 22:28N 33°58' E 130°54'0 0.0
2018-Apr-23 21:58N 33°59' E 130°54'0 0.0
2018-Apr-23 21:28N 33°59' E 130°54'0 0.0
2018-Apr-23 20:58N 33°59' E 130°54'0 0.0
2018-Apr-23 20:28N 33°59' E 130°54'0 0.0
2018-Apr-23 19:58N 33°59' E 130°54'0 0.0
2018-Apr-23 19:28N 33°59' E 130°54'0 0.0
2018-Apr-23 18:58N 33°59' E 130°54'0 0.0
2018-Apr-23 18:28N 33°59' E 130°54'0 0.0
2018-Apr-23 17:58N 33°59' E 130°54'0 0.0
2018-Apr-23 17:28N 33°59' E 130°54'0 0.0
2018-Apr-23 16:58N 33°58' E 130°54'0 0.0
2018-Apr-23 16:28N 33°58' E 130°54'0 0.0
2018-Apr-23 15:58N 33°58' E 130°54'0 0.0
2018-Apr-23 15:28N 33°58' E 130°54'0 0.0
2018-Apr-23 14:58N 33°58' E 130°54'0 0.0
2018-Apr-23 14:25N 33°58' E 130°54'0 0.0
2018-Apr-23 13:55N 33°58' E 130°54'0 0.0
2018-Apr-23 13:28N 33°58' E 130°54'0 0.0
2018-Apr-23 12:58N 33°58' E 130°54'0 0.0
2018-Apr-23 12:28N 33°58' E 130°54'0 0.0
2018-Apr-23 11:58N 33°58' E 130°54'0 0.0
2018-Apr-23 11:28N 33°58' E 130°54'0 0.0
2018-Apr-23 10:58N 33°58' E 130°54'0 0.0
2018-Apr-23 10:28N 33°58' E 130°54'0 0.0
2018-Apr-23 09:58N 33°58' E 130°54'0 0.0
2018-Apr-23 09:28N 33°58' E 130°54'0 0.0
2018-Apr-23 08:58N 33°58' E 130°54'0 0.0
2018-Apr-23 08:28N 33°58' E 130°54'0 0.0
2018-Apr-23 07:58N 33°59' E 130°54'0 0.0
2018-Apr-23 07:28N 33°58' E 130°54'0 0.0
2018-Apr-23 06:58N 33°59' E 130°54'0 0.0
2018-Apr-23 06:28N 33°58' E 130°54'0 0.0
2018-Apr-23 05:58N 33°58' E 130°54'0 0.0
2018-Apr-23 05:28N 33°58' E 130°54'0 0.0
2018-Apr-23 04:58N 33°58' E 130°54'0 0.0
2018-Apr-23 04:28N 33°58' E 130°54'0 0.0
2018-Apr-23 03:58N 33°58' E 130°54'0 0.0
2018-Apr-23 03:28N 33°59' E 130°54'0 0.0
2018-Apr-23 02:58N 33°59' E 130°54'0 0.0
2018-Apr-23 02:28N 33°58' E 130°54'0 0.0
2018-Apr-23 01:58N 33°58' E 130°54'0 0.0
2018-Apr-23 01:28N 33°59' E 130°54'0 0.0
2018-Apr-23 00:58N 33°58' E 130°54'0 0.1
2018-Apr-23 00:28N 33°58' E 130°54'0 0.0
2018-Apr-22 23:58N 33°58' E 130°54'0 0.9
2018-Apr-22 23:29N 33°58' E 130°53'0 0.0
2018-Apr-22 22:59N 33°58' E 130°53'0 0.0
2018-Apr-22 22:29N 33°58' E 130°53'0 0.0
2018-Apr-22 21:59N 33°58' E 130°53'0 0.0
2018-Apr-22 21:29N 33°58' E 130°53'0 0.1
2018-Apr-22 20:59N 33°58' E 130°53'0 0.0
2018-Apr-22 20:29N 33°58' E 130°53'0 0.0
2018-Apr-22 19:59N 33°58' E 130°53'0 0.0
2018-Apr-22 19:29N 33°58' E 130°53'0 0.0
2018-Apr-22 18:59N 33°58' E 130°53'0 0.1
2018-Apr-22 18:29N 33°58' E 130°53'0 0.0
2018-Apr-22 17:59N 33°58' E 130°53'0 0.0
2018-Apr-22 17:29N 33°58' E 130°53'0 0.0
2018-Apr-22 16:59N 33°58' E 130°53'0 0.1
2018-Apr-22 16:29N 33°58' E 130°53'0 0.1
2018-Apr-22 15:59N 33°58' E 130°53'0 0.1
2018-Apr-22 15:29N 33°58' E 130°53'0 0.0
2018-Apr-22 14:59N 33°58' E 130°53'0 0.0
2018-Apr-22 14:29N 33°58' E 130°53'0 0.0
2018-Apr-22 13:59N 33°58' E 130°53'0 0.0
2018-Apr-22 13:29N 33°58' E 130°53'0 0.0
2018-Apr-22 12:59N 33°58' E 130°53'0 0.0
2018-Apr-22 12:29N 33°58' E 130°53'0 0.0
2018-Apr-22 11:59N 33°58' E 130°53'0 0.0
2018-Apr-22 11:29N 33°58' E 130°53'2 3.5
2018-Apr-22 11:01N 33°57' E 130°52'3 6.9
2018-Apr-22 10:31N 33°55' E 130°56'4 7.6
2018-Apr-22 10:00N 33°58' E 130°59'5 9.7
2018-Apr-22 09:30N 33°57' E 131°04'611.7
2018-Apr-22 09:01N 33°54' E 131°10'611.2
2018-Apr-22 08:30N 33°53' E 131°17'612.2
2018-Apr-22 08:00N 33°55' E 131°24'612.4
2018-Apr-22 07:30N 33°57' E 131°31'612.3
2018-Apr-22 07:00N 33°60' E 131°37'611.7
2018-Apr-22 06:29N 34°02' E 131°44'2 0.8
2018-Apr-22 03:58N 34°03' E 131°46'3 5.5
2018-Apr-22 03:30N 34°03' E 131°43'0 0.4
2018-Apr-22 03:00N 34°03' E 131°43'2 3.5
2018-Apr-22 02:30N 34°03' E 131°45'0 0.6
2018-Apr-22 02:00N 34°03' E 131°45'0 0.0
2018-Apr-22 01:25N 34°03' E 131°45'0 0.0
2018-Apr-22 00:58N 34°03' E 131°45'0 0.0
2018-Apr-22 00:30N 34°03' E 131°45'0 0.1
2018-Apr-22 00:00N 34°03' E 131°45'2 4.2
2018-Apr-21 23:30N 34°02' E 131°43'2 3.2
2018-Apr-21 23:00N 34°01' E 131°41'0 0.0
2018-Apr-21 22:25N 34°01' E 131°41'0 0.0
2018-Apr-21 21:58N 34°01' E 131°41'0 0.0
2018-Apr-21 21:28N 34°01' E 131°41'0 0.0
2018-Apr-21 20:25N 34°01' E 131°41'0 0.0
2018-Apr-21 19:49N 34°01' E 131°41'0 0.0
2018-Apr-21 19:25N 34°01' E 131°41'0 0.0
2018-Apr-21 18:49N 34°01' E 131°41'0 0.0
2018-Apr-21 18:25N 34°01' E 131°41'0 0.0
2018-Apr-21 15:37N 34°01' E 131°41'0 0.0
2018-Apr-21 15:25N 34°01' E 131°41'0 0.0
2018-Apr-21 14:49N 34°01' E 131°41'0 0.0
2018-Apr-21 14:19N 34°01' E 131°41'0 0.0
2018-Apr-21 13:40N 34°01' E 131°41'0 0.0
2018-Apr-21 13:28N 34°01' E 131°41'0 0.0
2018-Apr-21 12:55N 34°01' E 131°41'0 0.0
2018-Apr-21 12:28N 34°01' E 131°41'0 0.0
2018-Apr-21 11:55N 34°01' E 131°41'0 0.0
2018-Apr-21 11:25N 34°01' E 131°41'0 0.0
2018-Apr-21 10:58N 34°01' E 131°41'0 0.0
2018-Apr-21 10:28N 34°01' E 131°41'0 0.0
2018-Apr-21 09:55N 34°01' E 131°41'0 0.0
2018-Apr-21 09:19N 34°01' E 131°41'0 0.0
2018-Apr-21 08:58N 34°01' E 131°41'0 0.0
2018-Apr-21 08:13N 34°01' E 131°41'0 0.0
2018-Apr-21 07:58N 34°01' E 131°41'0 0.0
2018-Apr-21 07:25N 34°01' E 131°41'0 0.0
2018-Apr-21 06:55N 34°01' E 131°41'0 0.0
2018-Apr-21 06:19N 34°01' E 131°41'0 0.0
2018-Apr-21 05:58N 34°01' E 131°41'0 0.0
2018-Apr-21 05:28N 34°01' E 131°41'0 0.0
2018-Apr-21 04:49N 34°01' E 131°41'0 0.0
2018-Apr-21 04:25N 34°01' E 131°41'0 0.0
2018-Apr-21 03:55N 34°01' E 131°41'0 0.0
2018-Apr-21 03:25N 34°01' E 131°41'0 0.0
2018-Apr-21 02:58N 34°01' E 131°41'0 0.0
2018-Apr-21 01:31N 34°01' E 131°41'0 0.0
2018-Apr-21 01:13N 34°01' E 131°41'0 0.0
2018-Apr-21 00:37N 34°01' E 131°41'0 0.0
2018-Apr-21 00:25N 34°01' E 131°41'0 0.0
2018-Apr-20 23:13N 34°01' E 131°41'0 0.0
2018-Apr-20 22:55N 34°01' E 131°41'0 0.0
2018-Apr-20 22:19N 34°01' E 131°41'0 0.0
2018-Apr-20 21:55N 34°01' E 131°41'0 0.0
2018-Apr-20 20:52N 34°01' E 131°41'0 0.0
2018-Apr-20 20:28N 34°01' E 131°41'0 0.0
2018-Apr-20 19:58N 34°01' E 131°41'0 0.0
2018-Apr-20 19:13N 34°01' E 131°41'0 0.0
2018-Apr-20 18:31N 34°01' E 131°41'0 0.0
2018-Apr-20 18:01N 34°01' E 131°41'0 0.0
2018-Apr-20 17:58N 34°01' E 131°41'0 0.0
2018-Apr-20 17:13N 34°01' E 131°41'0 0.0
2018-Apr-20 16:55N 34°01' E 131°41'0 0.0
2018-Apr-20 16:25N 34°01' E 131°41'0 0.0
2018-Apr-20 15:49N 34°01' E 131°41'0 0.0
2018-Apr-20 15:25N 34°01' E 131°41'0 0.0
2018-Apr-20 14:25N 34°01' E 131°41'0 0.0
2018-Apr-20 13:49N 34°01' E 131°41'0 0.0
2018-Apr-20 13:19N 34°01' E 131°41'0 0.0
2018-Apr-20 12:55N 34°01' E 131°41'0 0.0
2018-Apr-20 12:28N 34°01' E 131°41'0 0.0
2018-Apr-20 11:55N 34°01' E 131°41'0 0.1
2018-Apr-20 11:28N 34°01' E 131°41'0 0.0
2018-Apr-20 10:55N 34°01' E 131°41'0 0.0
2018-Apr-20 10:28N 34°01' E 131°41'2 4.1
2018-Apr-20 09:56N 34°00' E 131°39'511.8
2018-Apr-20 09:30N 33°58' E 131°33'612.1
2018-Apr-20 09:00N 33°56' E 131°27'612.3
2018-Apr-20 08:30N 33°54' E 131°20'611.7
2018-Apr-20 08:00N 33°53' E 131°13'612.9
2018-Apr-20 07:30N 33°56' E 131°06'612.6
2018-Apr-20 07:00N 33°58' E 130°59'611.8
2018-Apr-20 06:30N 33°55' E 130°53'4 8.0
2018-Apr-20 06:00N 33°54' E 130°49'3 6.7
2018-Apr-20 05:30N 33°52' E 130°45'0 0.0
2018-Apr-20 04:59N 33°52' E 130°45'0 0.0
2018-Apr-20 04:29N 33°52' E 130°45'0 0.0
2018-Apr-20 03:59N 33°52' E 130°45'0 0.0
2018-Apr-20 03:26N 33°52' E 130°45'0 0.0
2018-Apr-20 02:59N 33°52' E 130°45'0 0.0
2018-Apr-20 02:29N 33°52' E 130°45'0 0.0
2018-Apr-20 01:59N 33°52' E 130°45'0 0.0
2018-Apr-20 01:26N 33°52' E 130°45'0 0.0
2018-Apr-20 00:59N 33°52' E 130°45'0 0.0
2018-Apr-20 00:29N 33°52' E 130°45'0 0.0
2018-Apr-19 23:59N 33°52' E 130°45'0 0.1
2018-Apr-19 23:31N 33°53' E 130°45'2 4.9
2018-Apr-19 23:01N 33°53' E 130°48'5 9.4
2018-Apr-19 22:31N 33°57' E 130°52'2 3.6
2018-Apr-19 21:59N 33°58' E 130°53'0 0.0
2018-Apr-19 21:29N 33°58' E 130°53'0 0.0
2018-Apr-19 20:59N 33°58' E 130°53'0 0.1
2018-Apr-19 20:29N 33°58' E 130°53'0 0.0
2018-Apr-19 19:59N 33°58' E 130°53'0 0.0
2018-Apr-19 19:29N 33°58' E 130°53'0 0.0
2018-Apr-19 18:59N 33°58' E 130°53'0 0.0
2018-Apr-19 18:26N 33°58' E 130°53'0 0.0
2018-Apr-19 17:59N 33°58' E 130°53'0 0.0
2018-Apr-19 17:29N 33°58' E 130°53'0 0.0
2018-Apr-19 16:59N 33°58' E 130°53'0 0.1
2018-Apr-19 16:29N 33°58' E 130°53'0 0.0
2018-Apr-19 15:59N 33°58' E 130°53'0 0.0
2018-Apr-19 15:29N 33°58' E 130°53'0 0.0
2018-Apr-19 14:56N 33°58' E 130°53'0 0.0
2018-Apr-19 14:29N 33°58' E 130°53'0 0.0
2018-Apr-19 13:59N 33°58' E 130°53'0 0.0
2018-Apr-19 13:29N 33°58' E 130°53'0 0.0
2018-Apr-19 12:59N 33°58' E 130°53'0 0.0
2018-Apr-19 12:29N 33°58' E 130°53'0 0.0
2018-Apr-19 11:59N 33°58' E 130°53'0 0.0
2018-Apr-19 11:29N 33°58' E 130°53'0 0.0
2018-Apr-19 10:59N 33°58' E 130°53'0 0.0
2018-Apr-19 10:29N 33°58' E 130°53'0 0.0
2018-Apr-19 09:59N 33°58' E 130°53'0 0.0
2018-Apr-19 09:29N 33°58' E 130°53'0 0.0
2018-Apr-19 08:59N 33°58' E 130°53'0 0.0
2018-Apr-19 08:29N 33°58' E 130°53'0 0.0
2018-Apr-19 07:59N 33°58' E 130°53'1 2.0
2018-Apr-19 07:30N 33°58' E 130°52'4 7.8
2018-Apr-19 07:01N 33°55' E 130°56'4 7.7
2018-Apr-19 06:30N 33°58' E 130°58'4 8.5
2018-Apr-19 06:00N 33°58' E 131°03'611.1
2018-Apr-19 05:30N 33°54' E 131°08'611.3
2018-Apr-19 05:00N 33°52' E 131°15'611.5
2018-Apr-19 04:30N 33°50' E 131°21'611.7
2018-Apr-19 04:00N 33°49' E 131°28'611.6
2018-Apr-19 03:30N 33°48' E 131°35'611.8
2018-Apr-19 03:00N 33°47' E 131°42'612.2
2018-Apr-19 02:30N 33°46' E 131°49'712.4
2018-Apr-19 01:57N 33°45' E 131°57'611.9
2018-Apr-19 01:28N 33°46' E 132°04'14 9.8
2018-Apr-19 00:01N 33°59' E 132°13'012.3
2018-Apr-19 00:00N 33°59' E 132°13'612.4
2018-Apr-18 23:30N 34°04' E 132°16'611.7
2018-Apr-18 23:00N 34°10' E 132°17'4 7.7
2018-Apr-18 22:30N 34°14' E 132°14'0 0.0
2018-Apr-18 21:14N 34°14' E 132°14'0 0.0
2018-Apr-18 20:50N 34°14' E 132°14'0 0.0
2018-Apr-18 20:20N 34°14' E 132°14'0 0.0
2018-Apr-18 19:56N 34°14' E 132°14'0 0.0
2018-Apr-18 19:20N 34°14' E 132°14'0 0.0
2018-Apr-18 18:56N 34°14' E 132°14'0 0.0
2018-Apr-18 18:26N 34°14' E 132°14'0 0.0
2018-Apr-18 17:44N 34°14' E 132°14'0 0.0
2018-Apr-18 17:20N 34°14' E 132°14'0 0.0
2018-Apr-18 16:08N 34°14' E 132°14'0 0.0
2018-Apr-18 15:44N 34°14' E 132°14'0 0.0
2018-Apr-18 15:26N 34°14' E 132°14'0 0.0
2018-Apr-18 14:26N 34°14' E 132°14'0 0.0
2018-Apr-18 13:56N 34°14' E 132°14'0 0.0
2018-Apr-18 13:20N 34°14' E 132°14'0 0.0
2018-Apr-18 12:56N 34°14' E 132°14'0 0.0
2018-Apr-18 12:26N 34°14' E 132°14'0 0.0
2018-Apr-18 11:20N 34°14' E 132°14'0 0.0
2018-Apr-18 10:56N 34°14' E 132°14'0 0.0
2018-Apr-18 03:08N 34°14' E 132°14'0 0.0
2018-Apr-18 02:56N 34°14' E 132°14'0 0.0
2018-Apr-17 20:56N 34°14' E 132°14'0 0.0
2018-Apr-17 20:26N 34°14' E 132°14'0 0.0
2018-Apr-17 19:56N 34°14' E 132°14'0 0.0
2018-Apr-17 19:26N 34°14' E 132°14'0 0.0
2018-Apr-17 18:56N 34°14' E 132°14'0 0.0
2018-Apr-17 18:26N 34°14' E 132°14'0 0.0
2018-Apr-17 17:56N 34°14' E 132°14'0 0.0
2018-Apr-17 17:26N 34°14' E 132°14'0 0.0
2018-Apr-17 16:50N 34°14' E 132°14'0 0.0
2018-Apr-17 16:20N 34°14' E 132°14'0 0.0
2018-Apr-17 15:56N 34°14' E 132°14'0 0.0
2018-Apr-17 15:26N 34°14' E 132°14'0 0.0
2018-Apr-17 14:56N 34°14' E 132°14'0 0.0
2018-Apr-17 14:26N 34°14' E 132°14'0 0.0
2018-Apr-17 13:50N 34°14' E 132°14'0 0.0
2018-Apr-17 13:26N 34°14' E 132°14'0 0.0
2018-Apr-17 10:32N 34°14' E 132°14'0 0.0
2018-Apr-17 10:20N 34°14' E 132°14'0 0.0
2018-Apr-17 09:26N 34°14' E 132°14'0 0.0
2018-Apr-17 08:56N 34°14' E 132°14'0 0.0
2018-Apr-17 07:20N 34°14' E 132°14'0 0.0
2018-Apr-17 05:56N 34°14' E 132°14'0 0.0
2018-Apr-17 04:50N 34°14' E 132°14'  
Track history (hours):
 
Tides and Currents Weather Stations Pressure Air Temp Water Temp Dewpoint Dewpoint Depression Visibility Wind Speed Wind Dir Waves Ship Positions

Senyomaru

Last reported at 2018-Apr-27 03:07 UTC. Time now 2018-Apr-27 05:02 UTC.
Position N 34°13' E 132°15'.

Length 69 m; draft 4 m.

Type: Tanker. MMSI: 431300188.

Date/timePositionNaut miles runAvg speedWind from/ knotsBaromVisibWave heightAir tempDewpointWater temp
2018-Apr-27 03:07N 34°13' E 132°15'0 0.0
2018-Apr-27 02:55N 34°13' E 132°15'0 0.0
2018-Apr-27 02:30N 34°13' E 132°15'1 2.0
2018-Apr-27 02:00N 34°14' E 132°14'0 0.1
2018-Apr-27 01:30N 34°14' E 132°14'0 0.0
2018-Apr-27 01:00N 34°14' E 132°14'0 0.0
2018-Apr-27 00:30N 34°14' E 132°14'0 0.0
2018-Apr-27 00:00N 34°14' E 132°14'0 0.0
2018-Apr-26 23:29N 34°14' E 132°14'0 0.1
2018-Apr-26 23:00N 34°14' E 132°14'1 0.9
2018-Apr-26 22:22N 34°14' E 132°14'0 0.0
2018-Apr-26 21:07N 34°14' E 132°14'0 0.0
2018-Apr-26 20:58N 34°14' E 132°14'0 0.0
2018-Apr-26 20:16N 34°14' E 132°14'0 0.1
2018-Apr-26 20:00N 34°14' E 132°14'510.8
2018-Apr-26 19:30N 34°10' E 132°18'712.7
2018-Apr-26 18:59N 34°06' E 132°25'612.3
2018-Apr-26 18:30N 34°03' E 132°30'4 8.3
2018-Apr-26 18:00N 34°03' E 132°35'4611.6
2018-Apr-26 14:01N 34°16' E 133°29'3011.1
2018-Apr-26 11:18N 34°27' E 134°03'611.9
2018-Apr-26 10:46N 34°26' E 134°11'611.7
2018-Apr-26 10:15N 34°24' E 134°18'312.0
2018-Apr-26 10:00N 34°25' E 134°22'612.3
2018-Apr-26 09:30N 34°27' E 134°29'612.4
2018-Apr-26 09:00N 34°29' E 134°36'612.5
2018-Apr-26 08:30N 34°32' E 134°42'612.7
2018-Apr-26 08:00N 34°34' E 134°49'713.4
2018-Apr-26 07:30N 34°37' E 134°57'611.5
2018-Apr-26 07:00N 34°36' E 135°04'611.9
2018-Apr-26 06:30N 34°35' E 135°11'611.5
2018-Apr-26 06:00N 34°34' E 135°18'611.1
2018-Apr-26 05:30N 34°33' E 135°25'1 1.9
2018-Apr-26 04:58N 34°33' E 135°26'0 0.0
2018-Apr-26 04:28N 34°33' E 135°26'0 0.0
2018-Apr-26 03:58N 34°33' E 135°26'0 0.0
2018-Apr-26 03:28N 34°33' E 135°26'0 0.0
2018-Apr-26 02:58N 34°33' E 135°26'0 0.0
2018-Apr-26 02:28N 34°33' E 135°26'0 0.0
2018-Apr-26 01:58N 34°33' E 135°26'0 0.0
2018-Apr-26 01:28N 34°33' E 135°26'0 0.0
2018-Apr-26 00:58N 34°33' E 135°26'0 0.0
2018-Apr-26 00:28N 34°33' E 135°26'0 0.0
2018-Apr-25 23:58N 34°33' E 135°26'1 2.2
2018-Apr-25 23:30N 34°33' E 135°24'1 2.4
2018-Apr-25 22:58N 34°34' E 135°23'0 0.0
2018-Apr-25 22:28N 34°34' E 135°23'0 0.0
2018-Apr-25 21:58N 34°34' E 135°23'0 0.0
2018-Apr-25 21:28N 34°34' E 135°23'0 0.0
2018-Apr-25 20:58N 34°34' E 135°23'0 0.0
2018-Apr-25 20:28N 34°34' E 135°23'0 0.0
2018-Apr-25 19:58N 34°34' E 135°23'0 0.0
2018-Apr-25 19:28N 34°34' E 135°23'0 0.0
2018-Apr-25 18:58N 34°34' E 135°23'0 0.0
2018-Apr-25 18:28N 34°34' E 135°23'0 0.0
2018-Apr-25 17:55N 34°34' E 135°23'0 0.0
2018-Apr-25 17:28N 34°34' E 135°23'0 0.0
2018-Apr-25 16:58N 34°34' E 135°23'0 0.0
2018-Apr-25 16:28N 34°34' E 135°23'0 0.0
2018-Apr-25 15:55N 34°34' E 135°23'1 1.3
2018-Apr-25 15:31N 34°34' E 135°22'611.6
2018-Apr-25 15:01N 34°34' E 135°15'611.8
2018-Apr-25 14:30N 34°34' E 135°08'713.8
2018-Apr-25 14:00N 34°37' E 135°01'714.2
2018-Apr-25 13:31N 34°35' E 134°53'713.2
2018-Apr-25 13:00N 34°32' E 134°45'612.6
2018-Apr-25 12:30N 34°30' E 134°38'612.3
2018-Apr-25 12:00N 34°27' E 134°31'9311.3
2018-Apr-25 03:44N 34°06' E 132°41'312.0
2018-Apr-25 03:30N 34°04' E 132°38'711.5
2018-Apr-25 02:55N 34°02' E 132°31'612.4
2018-Apr-25 02:26N 34°06' E 132°25'512.4
2018-Apr-25 01:59N 34°09' E 132°20'612.2
2018-Apr-25 01:30N 34°13' E 132°15'1 2.2
2018-Apr-25 01:00N 34°14' E 132°14'0 0.0
2018-Apr-25 00:28N 34°14' E 132°14'0 0.0
2018-Apr-24 23:58N 34°14' E 132°14'0 0.0
2018-Apr-24 23:25N 34°14' E 132°14'0 0.0
2018-Apr-24 22:49N 34°14' E 132°14'0 0.0
2018-Apr-24 22:19N 34°14' E 132°14'0 0.0
2018-Apr-24 21:58N 34°14' E 132°14'1 1.2
2018-Apr-24 21:27N 34°14' E 132°14'0 0.0
2018-Apr-24 21:00N 34°14' E 132°14'0 0.0
2018-Apr-24 20:30N 34°14' E 132°14'0 0.1
2018-Apr-24 20:00N 34°14' E 132°14'0 0.0
2018-Apr-24 19:30N 34°14' E 132°14'0 0.0
2018-Apr-24 18:57N 34°14' E 132°14'0 0.0
2018-Apr-24 18:30N 34°14' E 132°14'0 0.0
2018-Apr-24 17:57N 34°14' E 132°14'0 0.0
2018-Apr-24 17:30N 34°14' E 132°14'0 0.0
2018-Apr-24 17:00N 34°14' E 132°14'0 0.0
2018-Apr-24 16:30N 34°14' E 132°14'0 0.0
2018-Apr-24 15:57N 34°14' E 132°14'0 0.0
2018-Apr-24 15:30N 34°14' E 132°14'1 2.5
2018-Apr-24 15:00N 34°13' E 132°15'611.6
2018-Apr-24 14:30N 34°08' E 132°18'611.5
2018-Apr-24 13:59N 34°03' E 132°15'1910.0
2018-Apr-24 12:04N 33°46' E 132°03'111.2
2018-Apr-24 12:00N 33°46' E 132°02'712.6
2018-Apr-24 11:27N 33°46' E 131°54'613.2
2018-Apr-24 11:00N 33°47' E 131°47'712.9
2018-Apr-24 10:30N 33°48' E 131°40'612.9
2018-Apr-24 10:00N 33°50' E 131°32'612.8
2018-Apr-24 09:30N 33°51' E 131°25'612.4
2018-Apr-24 09:00N 33°52' E 131°17'612.0
2018-Apr-24 08:30N 33°54' E 131°10'611.9
2018-Apr-24 08:00N 33°57' E 131°04'510.5
2018-Apr-24 07:30N 33°58' E 130°58'4 8.8
2018-Apr-24 07:00N 33°54' E 130°55'4 8.6
2018-Apr-24 06:30N 33°56' E 130°50'4 8.8
2018-Apr-24 06:00N 33°53' E 130°46'1 1.8
2018-Apr-24 05:30N 33°52' E 130°45'0 0.0
2018-Apr-24 05:00N 33°52' E 130°45'0 0.0
2018-Apr-24 04:30N 33°52' E 130°45'0 0.0
2018-Apr-24 04:00N 33°52' E 130°45'0 0.0
2018-Apr-24 03:30N 33°52' E 130°45'0 0.0
2018-Apr-24 03:00N 33°52' E 130°45'0 0.0
2018-Apr-24 02:27N 33°52' E 130°45'0 0.0
2018-Apr-24 02:00N 33°52' E 130°45'0 0.0
2018-Apr-24 01:30N 33°52' E 130°45'0 0.0
2018-Apr-24 01:00N 33°52' E 130°45'0 0.0
2018-Apr-24 00:30N 33°52' E 130°45'0 0.2
2018-Apr-24 00:00N 33°53' E 130°45'2 4.9
2018-Apr-23 23:31N 33°53' E 130°48'4 8.9
2018-Apr-23 23:00N 33°57' E 130°52'2 4.7
2018-Apr-23 22:28N 33°58' E 130°54'0 0.0
2018-Apr-23 21:58N 33°59' E 130°54'0 0.0
2018-Apr-23 21:28N 33°59' E 130°54'0 0.0
2018-Apr-23 20:58N 33°59' E 130°54'0 0.0
2018-Apr-23 20:28N 33°59' E 130°54'0 0.0
2018-Apr-23 19:58N 33°59' E 130°54'0 0.0
2018-Apr-23 19:28N 33°59' E 130°54'0 0.0
2018-Apr-23 18:58N 33°59' E 130°54'0 0.0
2018-Apr-23 18:28N 33°59' E 130°54'0 0.0
2018-Apr-23 17:58N 33°59' E 130°54'0 0.0
2018-Apr-23 17:28N 33°59' E 130°54'0 0.0
2018-Apr-23 16:58N 33°58' E 130°54'0 0.0
2018-Apr-23 16:28N 33°58' E 130°54'0 0.0
2018-Apr-23 15:58N 33°58' E 130°54'0 0.0
2018-Apr-23 15:28N 33°58' E 130°54'0 0.0
2018-Apr-23 14:58N 33°58' E 130°54'0 0.0
2018-Apr-23 14:25N 33°58' E 130°54'0 0.0
2018-Apr-23 13:55N 33°58' E 130°54'0 0.0
2018-Apr-23 13:28N 33°58' E 130°54'0 0.0
2018-Apr-23 12:58N 33°58' E 130°54'0 0.0
2018-Apr-23 12:28N 33°58' E 130°54'0 0.0
2018-Apr-23 11:58N 33°58' E 130°54'0 0.0
2018-Apr-23 11:28N 33°58' E 130°54'0 0.0
2018-Apr-23 10:58N 33°58' E 130°54'0 0.0
2018-Apr-23 10:28N 33°58' E 130°54'0 0.0
2018-Apr-23 09:58N 33°58' E 130°54'0 0.0
2018-Apr-23 09:28N 33°58' E 130°54'0 0.0
2018-Apr-23 08:58N 33°58' E 130°54'0 0.0
2018-Apr-23 08:28N 33°58' E 130°54'0 0.0
2018-Apr-23 07:58N 33°59' E 130°54'0 0.0
2018-Apr-23 07:28N 33°58' E 130°54'0 0.0
2018-Apr-23 06:58N 33°59' E 130°54'0 0.0
2018-Apr-23 06:28N 33°58' E 130°54'0 0.0
2018-Apr-23 05:58N 33°58' E 130°54'0 0.0
2018-Apr-23 05:28N 33°58' E 130°54'0 0.0
2018-Apr-23 04:58N 33°58' E 130°54'0 0.0
2018-Apr-23 04:28N 33°58' E 130°54'0 0.0
2018-Apr-23 03:58N 33°58' E 130°54'0 0.0
2018-Apr-23 03:28N 33°59' E 130°54'0 0.0
2018-Apr-23 02:58N 33°59' E 130°54'0 0.0
2018-Apr-23 02:28N 33°58' E 130°54'0 0.0
2018-Apr-23 01:58N 33°58' E 130°54'0 0.0
2018-Apr-23 01:28N 33°59' E 130°54'0 0.0
2018-Apr-23 00:58N 33°58' E 130°54'0 0.1
2018-Apr-23 00:28N 33°58' E 130°54'0 0.0
2018-Apr-22 23:58N 33°58' E 130°54'0 0.9
2018-Apr-22 23:29N 33°58' E 130°53'0 0.0
2018-Apr-22 22:59N 33°58' E 130°53'0 0.0
2018-Apr-22 22:29N 33°58' E 130°53'0 0.0
2018-Apr-22 21:59N 33°58' E 130°53'0 0.0
2018-Apr-22 21:29N 33°58' E 130°53'0 0.1
2018-Apr-22 20:59N 33°58' E 130°53'0 0.0
2018-Apr-22 20:29N 33°58' E 130°53'0 0.0
2018-Apr-22 19:59N 33°58' E 130°53'0 0.0
2018-Apr-22 19:29N 33°58' E 130°53'0 0.0
2018-Apr-22 18:59N 33°58' E 130°53'0 0.1
2018-Apr-22 18:29N 33°58' E 130°53'0 0.0
2018-Apr-22 17:59N 33°58' E 130°53'0 0.0
2018-Apr-22 17:29N 33°58' E 130°53'0 0.0
2018-Apr-22 16:59N 33°58' E 130°53'0 0.1
2018-Apr-22 16:29N 33°58' E 130°53'0 0.1
2018-Apr-22 15:59N 33°58' E 130°53'0 0.1
2018-Apr-22 15:29N 33°58' E 130°53'0 0.0
2018-Apr-22 14:59N 33°58' E 130°53'0 0.0
2018-Apr-22 14:29N 33°58' E 130°53'0 0.0
2018-Apr-22 13:59N 33°58' E 130°53'0 0.0
2018-Apr-22 13:29N 33°58' E 130°53'0 0.0
2018-Apr-22 12:59N 33°58' E 130°53'0 0.0
2018-Apr-22 12:29N 33°58' E 130°53'0 0.0
2018-Apr-22 11:59N 33°58' E 130°53'0 0.0
2018-Apr-22 11:29N 33°58' E 130°53'2 3.5
2018-Apr-22 11:01N 33°57' E 130°52'3 6.9
2018-Apr-22 10:31N 33°55' E 130°56'4 7.6
2018-Apr-22 10:00N 33°58' E 130°59'5 9.7
2018-Apr-22 09:30N 33°57' E 131°04'611.7
2018-Apr-22 09:01N 33°54' E 131°10'611.2
2018-Apr-22 08:30N 33°53' E 131°17'612.2
2018-Apr-22 08:00N 33°55' E 131°24'612.4
2018-Apr-22 07:30N 33°57' E 131°31'612.3
2018-Apr-22 07:00N 33°60' E 131°37'611.7
2018-Apr-22 06:29N 34°02' E 131°44'2 0.8
2018-Apr-22 03:58N 34°03' E 131°46'3 5.5
2018-Apr-22 03:30N 34°03' E 131°43'0 0.4
2018-Apr-22 03:00N 34°03' E 131°43'2 3.5
2018-Apr-22 02:30N 34°03' E 131°45'0 0.6
2018-Apr-22 02:00N 34°03' E 131°45'0 0.0
2018-Apr-22 01:25N 34°03' E 131°45'0 0.0
2018-Apr-22 00:58N 34°03' E 131°45'0 0.0
2018-Apr-22 00:30N 34°03' E 131°45'0 0.1
2018-Apr-22 00:00N 34°03' E 131°45'2 4.2
2018-Apr-21 23:30N 34°02' E 131°43'2 3.2
2018-Apr-21 23:00N 34°01' E 131°41'0 0.0
2018-Apr-21 22:25N 34°01' E 131°41'0 0.0
2018-Apr-21 21:58N 34°01' E 131°41'0 0.0
2018-Apr-21 21:28N 34°01' E 131°41'0 0.0
2018-Apr-21 20:25N 34°01' E 131°41'0 0.0
2018-Apr-21 19:49N 34°01' E 131°41'0 0.0
2018-Apr-21 19:25N 34°01' E 131°41'0 0.0
2018-Apr-21 18:49N 34°01' E 131°41'0 0.0
2018-Apr-21 18:25N 34°01' E 131°41'0 0.0
2018-Apr-21 15:37N 34°01' E 131°41'0 0.0
2018-Apr-21 15:25N 34°01' E 131°41'0 0.0
2018-Apr-21 14:49N 34°01' E 131°41'0 0.0
2018-Apr-21 14:19N 34°01' E 131°41'0 0.0
2018-Apr-21 13:40N 34°01' E 131°41'0 0.0
2018-Apr-21 13:28N 34°01' E 131°41'0 0.0
2018-Apr-21 12:55N 34°01' E 131°41'0 0.0
2018-Apr-21 12:28N 34°01' E 131°41'0 0.0
2018-Apr-21 11:55N 34°01' E 131°41'0 0.0
2018-Apr-21 11:25N 34°01' E 131°41'0 0.0
2018-Apr-21 10:58N 34°01' E 131°41'0 0.0
2018-Apr-21 10:28N 34°01' E 131°41'0 0.0
2018-Apr-21 09:55N 34°01' E 131°41'0 0.0
2018-Apr-21 09:19N 34°01' E 131°41'0 0.0
2018-Apr-21 08:58N 34°01' E 131°41'0 0.0
2018-Apr-21 08:13N 34°01' E 131°41'0 0.0
2018-Apr-21 07:58N 34°01' E 131°41'0 0.0
2018-Apr-21 07:25N 34°01' E 131°41'0 0.0
2018-Apr-21 06:55N 34°01' E 131°41'0 0.0
2018-Apr-21 06:19N 34°01' E 131°41'0 0.0
2018-Apr-21 05:58N 34°01' E 131°41'0 0.0
2018-Apr-21 05:28N 34°01' E 131°41'0 0.0
2018-Apr-21 04:49N 34°01' E 131°41'0 0.0
2018-Apr-21 04:25N 34°01' E 131°41'0 0.0
2018-Apr-21 03:55N 34°01' E 131°41'0 0.0
2018-Apr-21 03:25N 34°01' E 131°41'0 0.0
2018-Apr-21 02:58N 34°01' E 131°41'0 0.0
2018-Apr-21 01:31N 34°01' E 131°41'0 0.0
2018-Apr-21 01:13N 34°01' E 131°41'0 0.0
2018-Apr-21 00:37N 34°01' E 131°41'0 0.0
2018-Apr-21 00:25N 34°01' E 131°41'0 0.0
2018-Apr-20 23:13N 34°01' E 131°41'0 0.0
2018-Apr-20 22:55N 34°01' E 131°41'0 0.0
2018-Apr-20 22:19N 34°01' E 131°41'0 0.0
2018-Apr-20 21:55N 34°01' E 131°41'0 0.0
2018-Apr-20 20:52N 34°01' E 131°41'0 0.0
2018-Apr-20 20:28N 34°01' E 131°41'0 0.0
2018-Apr-20 19:58N 34°01' E 131°41'0 0.0
2018-Apr-20 19:13N 34°01' E 131°41'0 0.0
2018-Apr-20 18:31N 34°01' E 131°41'0 0.0
2018-Apr-20 18:01N 34°01' E 131°41'0 0.0
2018-Apr-20 17:58N 34°01' E 131°41'0 0.0
2018-Apr-20 17:13N 34°01' E 131°41'0 0.0
2018-Apr-20 16:55N 34°01' E 131°41'0 0.0
2018-Apr-20 16:25N 34°01' E 131°41'0 0.0
2018-Apr-20 15:49N 34°01' E 131°41'0 0.0
2018-Apr-20 15:25N 34°01' E 131°41'0 0.0
2018-Apr-20 14:25N 34°01' E 131°41'0 0.0
2018-Apr-20 13:49N 34°01' E 131°41'0 0.0
2018-Apr-20 13:19N 34°01' E 131°41'0 0.0
2018-Apr-20 12:55N 34°01' E 131°41'0 0.0
2018-Apr-20 12:28N 34°01' E 131°41'0 0.0
2018-Apr-20 11:55N 34°01' E 131°41'0 0.1
2018-Apr-20 11:28N 34°01' E 131°41'0 0.0
2018-Apr-20 10:55N 34°01' E 131°41'0 0.0
2018-Apr-20 10:28N 34°01' E 131°41'2 4.1
2018-Apr-20 09:56N 34°00' E 131°39'511.8
2018-Apr-20 09:30N 33°58' E 131°33'612.1
2018-Apr-20 09:00N 33°56' E 131°27'612.3
2018-Apr-20 08:30N 33°54' E 131°20'611.7
2018-Apr-20 08:00N 33°53' E 131°13'612.9
2018-Apr-20 07:30N 33°56' E 131°06'612.6
2018-Apr-20 07:00N 33°58' E 130°59'611.8
2018-Apr-20 06:30N 33°55' E 130°53'4 8.0
2018-Apr-20 06:00N 33°54' E 130°49'3 6.7
2018-Apr-20 05:30N 33°52' E 130°45'0 0.0
2018-Apr-20 04:59N 33°52' E 130°45'0 0.0
2018-Apr-20 04:29N 33°52' E 130°45'0 0.0
2018-Apr-20 03:59N 33°52' E 130°45'0 0.0
2018-Apr-20 03:26N 33°52' E 130°45'0 0.0
2018-Apr-20 02:59N 33°52' E 130°45'0 0.0
2018-Apr-20 02:29N 33°52' E 130°45'0 0.0
2018-Apr-20 01:59N 33°52' E 130°45'0 0.0
2018-Apr-20 01:26N 33°52' E 130°45'0 0.0
2018-Apr-20 00:59N 33°52' E 130°45'0 0.0
2018-Apr-20 00:29N 33°52' E 130°45'0 0.0
2018-Apr-19 23:59N 33°52' E 130°45'0 0.1
2018-Apr-19 23:31N 33°53' E 130°45'2 4.9
2018-Apr-19 23:01N 33°53' E 130°48'5 9.4
2018-Apr-19 22:31N 33°57' E 130°52'2 3.6
2018-Apr-19 21:59N 33°58' E 130°53'0 0.0
2018-Apr-19 21:29N 33°58' E 130°53'0 0.0
2018-Apr-19 20:59N 33°58' E 130°53'0 0.1
2018-Apr-19 20:29N 33°58' E 130°53'0 0.0
2018-Apr-19 19:59N 33°58' E 130°53'0 0.0
2018-Apr-19 19:29N 33°58' E 130°53'0 0.0
2018-Apr-19 18:59N 33°58' E 130°53'0 0.0
2018-Apr-19 18:26N 33°58' E 130°53'0 0.0
2018-Apr-19 17:59N 33°58' E 130°53'0 0.0
2018-Apr-19 17:29N 33°58' E 130°53'0 0.0
2018-Apr-19 16:59N 33°58' E 130°53'0 0.1
2018-Apr-19 16:29N 33°58' E 130°53'0 0.0
2018-Apr-19 15:59N 33°58' E 130°53'0 0.0
2018-Apr-19 15:29N 33°58' E 130°53'0 0.0
2018-Apr-19 14:56N 33°58' E 130°53'0 0.0
2018-Apr-19 14:29N 33°58' E 130°53'0 0.0
2018-Apr-19 13:59N 33°58' E 130°53'0 0.0
2018-Apr-19 13:29N 33°58' E 130°53'0 0.0
2018-Apr-19 12:59N 33°58' E 130°53'0 0.0
2018-Apr-19 12:29N 33°58' E 130°53'0 0.0
2018-Apr-19 11:59N 33°58' E 130°53'0 0.0
2018-Apr-19 11:29N 33°58' E 130°53'0 0.0
2018-Apr-19 10:59N 33°58' E 130°53'0 0.0
2018-Apr-19 10:29N 33°58' E 130°53'0 0.0
2018-Apr-19 09:59N 33°58' E 130°53'0 0.0
2018-Apr-19 09:29N 33°58' E 130°53'0 0.0
2018-Apr-19 08:59N 33°58' E 130°53'0 0.0
2018-Apr-19 08:29N 33°58' E 130°53'0 0.0
2018-Apr-19 07:59N 33°58' E 130°53'1 2.0
2018-Apr-19 07:30N 33°58' E 130°52'4 7.8
2018-Apr-19 07:01N 33°55' E 130°56'4 7.7
2018-Apr-19 06:30N 33°58' E 130°58'4 8.5
2018-Apr-19 06:00N 33°58' E 131°03'611.1
2018-Apr-19 05:30N 33°54' E 131°08'611.3
2018-Apr-19 05:00N 33°52' E 131°15'611.5
2018-Apr-19 04:30N 33°50' E 131°21'611.7
2018-Apr-19 04:00N 33°49' E 131°28'611.6
2018-Apr-19 03:30N 33°48' E 131°35'611.8
2018-Apr-19 03:00N 33°47' E 131°42'612.2
2018-Apr-19 02:30N 33°46' E 131°49'712.4
2018-Apr-19 01:57N 33°45' E 131°57'611.9
2018-Apr-19 01:28N 33°46' E 132°04'14 9.8
2018-Apr-19 00:01N 33°59' E 132°13'012.3
2018-Apr-19 00:00N 33°59' E 132°13'612.4
2018-Apr-18 23:30N 34°04' E 132°16'611.7
2018-Apr-18 23:00N 34°10' E 132°17'4 7.7
2018-Apr-18 22:30N 34°14' E 132°14'0 0.0
2018-Apr-18 21:14N 34°14' E 132°14'0 0.0
2018-Apr-18 20:50N 34°14' E 132°14'0 0.0
2018-Apr-18 20:20N 34°14' E 132°14'0 0.0
2018-Apr-18 19:56N 34°14' E 132°14'0 0.0
2018-Apr-18 19:20N 34°14' E 132°14'0 0.0
2018-Apr-18 18:56N 34°14' E 132°14'0 0.0
2018-Apr-18 18:26N 34°14' E 132°14'0 0.0
2018-Apr-18 17:44N 34°14' E 132°14'0 0.0
2018-Apr-18 17:20N 34°14' E 132°14'0 0.0
2018-Apr-18 16:08N 34°14' E 132°14'0 0.0
2018-Apr-18 15:44N 34°14' E 132°14'0 0.0
2018-Apr-18 15:26N 34°14' E 132°14'0 0.0
2018-Apr-18 14:26N 34°14' E 132°14'0 0.0
2018-Apr-18 13:56N 34°14' E 132°14'0 0.0
2018-Apr-18 13:20N 34°14' E 132°14'0 0.0
2018-Apr-18 12:56N 34°14' E 132°14'0 0.0
2018-Apr-18 12:26N 34°14' E 132°14'0 0.0
2018-Apr-18 11:20N 34°14' E 132°14'0 0.0
2018-Apr-18 10:56N 34°14' E 132°14'0 0.0
2018-Apr-18 03:08N 34°14' E 132°14'0 0.0
2018-Apr-18 02:56N 34°14' E 132°14'0 0.0
2018-Apr-17 20:56N 34°14' E 132°14'0 0.0
2018-Apr-17 20:26N 34°14' E 132°14'0 0.0
2018-Apr-17 19:56N 34°14' E 132°14'0 0.0
2018-Apr-17 19:26N 34°14' E 132°14'0 0.0
2018-Apr-17 18:56N 34°14' E 132°14'0 0.0
2018-Apr-17 18:26N 34°14' E 132°14'0 0.0
2018-Apr-17 17:56N 34°14' E 132°14'0 0.0
2018-Apr-17 17:26N 34°14' E 132°14'0 0.0
2018-Apr-17 16:50N 34°14' E 132°14'0 0.0
2018-Apr-17 16:20N 34°14' E 132°14'0 0.0
2018-Apr-17 15:56N 34°14' E 132°14'0 0.0
2018-Apr-17 15:26N 34°14' E 132°14'0 0.0
2018-Apr-17 14:56N 34°14' E 132°14'0 0.0
2018-Apr-17 14:26N 34°14' E 132°14'0 0.0
2018-Apr-17 13:50N 34°14' E 132°14'0 0.0
2018-Apr-17 13:26N 34°14' E 132°14'0 0.0
2018-Apr-17 10:32N 34°14' E 132°14'0 0.0
2018-Apr-17 10:20N 34°14' E 132°14'0 0.0
2018-Apr-17 09:26N 34°14' E 132°14'0 0.0
2018-Apr-17 08:56N 34°14' E 132°14'0 0.0
2018-Apr-17 07:20N 34°14' E 132°14'0 0.0
2018-Apr-17 05:56N 34°14' E 132°14'0 0.0
2018-Apr-17 04:50N 34°14' E 132°14'  

Dump ship's entire track history